createdAt,value
2023-03-29T00:00:36.081Z,72.00
2023-03-29T00:03:04.525Z,72.30
2023-03-29T00:05:35.358Z,71.60
2023-03-29T00:08:04.798Z,70.90
2023-03-29T00:10:34.449Z,70.70
2023-03-29T00:13:02.640Z,70.40
2023-03-29T00:15:29.911Z,70.50
2023-03-29T00:17:59.759Z,71.00
2023-03-29T00:20:29.047Z,71.30
2023-03-29T00:22:58.643Z,71.10
2023-03-29T00:25:26.085Z,71.30
2023-03-29T00:27:53.689Z,71.40
2023-03-29T00:30:21.363Z,70.90
2023-03-29T00:32:49.572Z,70.90
2023-03-29T00:35:17.318Z,70.60
2023-03-29T00:37:51.224Z,70.50
2023-03-29T00:40:19.378Z,70.50
2023-03-29T00:42:46.658Z,70.50
2023-03-29T00:45:14.154Z,69.70
2023-03-29T00:47:44.342Z,70.10
2023-03-29T00:50:18.427Z,70.20
2023-03-29T00:52:51.620Z,70.20
2023-03-29T00:55:23.159Z,68.90
2023-03-29T00:57:52.252Z,67.30
2023-03-29T01:00:27.219Z,66.10
2023-03-29T01:02:59.750Z,64.80
2023-03-29T01:05:41.664Z,64.60
2023-03-29T01:08:18.516Z,63.90
2023-03-29T01:10:51.626Z,64.10
2023-03-29T01:13:27.521Z,64.20
2023-03-29T01:15:56.704Z,64.10
2023-03-29T01:18:23.852Z,64.50
2023-03-29T01:21:25.322Z,64.80
2023-03-29T01:24:15.710Z,65.10
2023-03-29T01:27:09.083Z,65.80
2023-03-29T01:29:39.275Z,66.10
2023-03-29T01:32:14.348Z,66.40
2023-03-29T01:34:49.150Z,66.60
2023-03-29T01:37:32.482Z,66.60
2023-03-29T01:40:01.147Z,65.80
2023-03-29T01:42:40.446Z,64.60
2023-03-29T01:45:26.512Z,62.30
2023-03-29T01:48:18.992Z,61.60
2023-03-29T01:51:03.826Z,61.30
2023-03-29T01:53:36.830Z,61.10
2023-03-29T01:56:13.540Z,60.90
2023-03-29T01:58:49.041Z,61.40
2023-03-29T02:01:21.363Z,62.10
2023-03-29T02:03:51.356Z,62.50
2023-03-29T02:06:23.004Z,62.60
2023-03-29T02:08:52.321Z,62.80
2023-03-29T02:11:22.530Z,62.90
2023-03-29T02:13:49.551Z,63.10
2023-03-29T02:16:17.204Z,63.00
2023-03-29T02:18:48.698Z,62.80
2023-03-29T02:21:24.818Z,62.60
2023-03-29T02:23:54.830Z,63.10
2023-03-29T02:26:24.006Z,63.10
2023-03-29T02:28:53.001Z,63.30
2023-03-29T02:31:22.964Z,63.70
2023-03-29T02:34:08.036Z,63.90
2023-03-29T02:36:44.154Z,63.60
2023-03-29T02:39:18.637Z,62.90
2023-03-29T02:41:49.437Z,62.50
2023-03-29T02:44:26.689Z,62.70
2023-03-29T02:47:06.880Z,62.50
2023-03-29T02:49:34.730Z,62.40
2023-03-29T02:52:10.653Z,61.70
2023-03-29T02:54:43.675Z,61.30
2023-03-29T02:57:11.670Z,62.60
2023-03-29T02:59:40.935Z,65.30
2023-03-29T03:02:08.122Z,66.90
2023-03-29T03:04:36.060Z,69.00
2023-03-29T03:07:05.285Z,70.30
2023-03-29T03:09:33.165Z,71.50
2023-03-29T03:12:00.608Z,72.30
2023-03-29T03:14:28.375Z,72.80
2023-03-29T03:16:55.611Z,72.90
2023-03-29T03:19:23.276Z,71.00
2023-03-29T03:21:51.351Z,69.30
2023-03-29T03:24:22.645Z,68.40
2023-03-29T03:26:50.362Z,67.30
2023-03-29T03:29:17.712Z,67.10
2023-03-29T03:31:45.737Z,67.30
2023-03-29T03:34:13.095Z,67.50
2023-03-29T03:36:40.791Z,67.50
2023-03-29T03:39:08.873Z,67.40
2023-03-29T03:41:36.930Z,67.40
2023-03-29T03:44:05.253Z,67.10
2023-03-29T03:46:33.120Z,67.20
2023-03-29T03:49:01.359Z,67.50
2023-03-29T03:51:29.127Z,67.50
2023-03-29T03:53:56.524Z,67.60
2023-03-29T03:56:24.511Z,67.40
2023-03-29T03:58:51.994Z,67.20
2023-03-29T04:01:20.477Z,66.90
2023-03-29T04:03:50.128Z,66.90
2023-03-29T04:06:18.006Z,66.40
2023-03-29T04:08:46.997Z,66.10
2023-03-29T04:11:15.520Z,66.40
2023-03-29T04:13:43.001Z,66.70
2023-03-29T04:16:10.753Z,66.90
2023-03-29T04:18:38.423Z,67.20
2023-03-29T04:21:06.680Z,66.70
2023-03-29T04:23:34.867Z,66.80
2023-03-29T04:26:03.066Z,67.10
2023-03-29T04:28:31.840Z,67.60
2023-03-29T04:31:01.957Z,68.20
2023-03-29T04:33:33.193Z,68.30
2023-03-29T04:36:03.826Z,68.50
2023-03-29T04:38:31.576Z,68.50
2023-03-29T04:41:02.296Z,68.40
2023-03-29T04:43:31.319Z,68.20
2023-03-29T04:45:59.212Z,68.40
2023-03-29T04:48:27.206Z,68.30
2023-03-29T04:50:54.702Z,68.30
2023-03-29T04:53:22.415Z,68.40
2023-03-29T04:55:49.785Z,68.50
2023-03-29T04:58:22.085Z,68.50
2023-03-29T05:00:51.714Z,68.70
2023-03-29T05:03:20.341Z,68.80
2023-03-29T05:08:16.219Z,69.60
2023-03-29T05:10:44.985Z,70.00
2023-03-29T05:13:12.986Z,70.30
2023-03-29T05:15:44.213Z,70.50
2023-03-29T05:18:12.326Z,70.30
2023-03-29T05:20:40.607Z,69.80
2023-03-29T05:23:08.822Z,69.10
2023-03-29T05:25:39.392Z,68.00
2023-03-29T05:28:11.733Z,67.90
2023-03-29T05:30:42.847Z,68.20
2023-03-29T05:33:12.795Z,68.30
2023-03-29T05:35:44.110Z,68.60
2023-03-29T05:38:11.786Z,68.00
2023-03-29T05:40:45.096Z,66.30
2023-03-29T05:43:13.223Z,66.50
2023-03-29T05:45:42.125Z,66.40
2023-03-29T05:48:10.510Z,66.50
2023-03-29T05:50:40.627Z,65.40
2023-03-29T05:53:08.485Z,65.00
2023-03-29T05:55:37.323Z,65.00
2023-03-29T05:58:04.690Z,64.50
2023-03-29T06:00:34.613Z,64.60
2023-03-29T06:03:17.913Z,64.60
2023-03-29T06:05:50.613Z,64.00
2023-03-29T06:08:26.989Z,62.70
2023-03-29T06:11:12.475Z,62.20
2023-03-29T06:13:55.004Z,62.60
2023-03-29T06:16:26.040Z,62.60
2023-03-29T06:18:54.936Z,62.50
2023-03-29T06:21:23.051Z,62.00
2023-03-29T06:23:54.430Z,60.40
2023-03-29T06:26:29.820Z,60.20
2023-03-29T06:29:02.693Z,59.90
2023-03-29T06:31:37.430Z,59.80
2023-03-29T06:34:06.895Z,59.40
2023-03-29T06:36:35.766Z,58.40
2023-03-29T06:39:09.032Z,58.30
2023-03-29T06:41:36.994Z,57.20
2023-03-29T06:44:06.982Z,57.10
2023-03-29T06:46:37.015Z,56.00
2023-03-29T06:49:05.116Z,54.90
2023-03-29T06:51:43.000Z,53.40
2023-03-29T06:54:10.501Z,53.90
2023-03-29T06:56:46.442Z,54.60
2023-03-29T06:59:21.251Z,55.00
2023-03-29T07:01:49.655Z,54.70
2023-03-29T07:04:21.585Z,54.30
2023-03-29T07:06:59.024Z,53.60
2023-03-29T07:09:37.710Z,50.60
2023-03-29T07:12:09.146Z,47.80
2023-03-29T07:14:44.070Z,45.60
2023-03-29T07:17:12.683Z,43.40
2023-03-29T07:19:46.998Z,43.00
2023-03-29T07:22:22.064Z,41.40
2023-03-29T07:24:54.393Z,42.00
2023-03-29T07:27:30.371Z,43.40
2023-03-29T07:30:11.558Z,44.60
2023-03-29T07:32:41.380Z,45.50
2023-03-29T07:35:18.431Z,45.40
2023-03-29T07:37:52.128Z,46.00
2023-03-29T07:40:23.665Z,47.80
2023-03-29T07:42:55.619Z,49.70
2023-03-29T07:45:28.261Z,51.20
2023-03-29T07:48:03.665Z,52.00
2023-03-29T07:50:35.402Z,52.50
2023-03-29T07:53:15.785Z,53.30
2023-03-29T07:55:50.170Z,53.30
2023-03-29T07:58:23.114Z,53.60
2023-03-29T08:01:01.467Z,53.60
2023-03-29T08:03:38.560Z,52.70
2023-03-29T08:06:09.264Z,52.00
2023-03-29T08:08:36.587Z,51.70
2023-03-29T08:11:09.810Z,52.00
2023-03-29T08:13:37.685Z,53.00
2023-03-29T08:16:06.245Z,52.70
2023-03-29T08:18:37.136Z,49.50
2023-03-29T08:21:06.886Z,44.40
2023-03-29T08:23:37.547Z,43.60
2023-03-29T08:26:05.290Z,43.30
2023-03-29T08:28:38.059Z,40.70
2023-03-29T08:31:07.266Z,39.30
2023-03-29T08:33:35.089Z,38.20
2023-03-29T08:36:20.680Z,37.60
2023-03-29T08:38:52.392Z,37.90
2023-03-29T08:41:51.484Z,38.80
2023-03-29T08:44:27.343Z,39.40
2023-03-29T08:47:20.717Z,41.20
2023-03-29T08:49:55.345Z,42.80
2023-03-29T08:52:36.454Z,43.30
2023-03-29T08:55:15.193Z,43.40
2023-03-29T08:57:49.274Z,43.40
2023-03-29T09:00:44.862Z,44.40
2023-03-29T09:07:14.168Z,45.60
2023-03-29T09:09:43.330Z,43.90
2023-03-29T09:12:16.827Z,44.00
2023-03-29T09:15:13.227Z,44.90
2023-03-29T09:18:25.364Z,45.80
2023-03-29T09:20:52.761Z,45.50
2023-03-29T09:23:46.546Z,45.40
2023-03-29T09:26:39.757Z,45.40
2023-03-29T09:29:19.201Z,45.30
2023-03-29T09:31:51.301Z,45.70
2023-03-29T09:34:37.892Z,46.00
2023-03-29T09:40:36.180Z,45.70
2023-03-29T09:43:04.752Z,46.40
2023-03-29T09:45:35.371Z,48.00
2023-03-29T09:48:19.775Z,49.10
2023-03-29T09:50:51.777Z,49.70
2023-03-29T09:53:23.564Z,50.50
2023-03-29T09:55:52.419Z,51.20
2023-03-29T09:58:30.810Z,50.90
2023-03-29T10:00:59.698Z,51.20
2023-03-29T10:03:32.597Z,51.70
2023-03-29T10:06:03.611Z,49.30
2023-03-29T10:08:46.223Z,49.30
2023-03-29T10:11:29.680Z,49.30
2023-03-29T10:14:05.618Z,50.00
2023-03-29T10:16:46.359Z,51.00
2023-03-29T10:19:29.146Z,50.70
2023-03-29T10:22:00.344Z,50.20
2023-03-29T10:24:29.103Z,49.80
2023-03-29T10:27:07.222Z,50.10
2023-03-29T10:29:48.316Z,49.30
2023-03-29T10:32:37.030Z,49.50
2023-03-29T10:35:23.785Z,49.00
2023-03-29T10:37:59.557Z,48.10
2023-03-29T10:40:35.674Z,46.10
2023-03-29T10:43:24.842Z,45.70
2023-03-29T10:45:58.049Z,45.60
2023-03-29T10:48:31.265Z,45.60
2023-03-29T10:51:04.281Z,44.90
2023-03-29T10:53:40.979Z,44.40
2023-03-29T10:56:37.327Z,43.50
2023-03-29T10:59:47.428Z,44.70
2023-03-29T11:02:31.265Z,45.60
2023-03-29T11:05:20.798Z,46.10
2023-03-29T11:08:12.773Z,46.30
2023-03-29T11:10:55.743Z,45.60
2023-03-29T11:13:48.554Z,45.20
2023-03-29T11:16:29.125Z,44.80
2023-03-29T11:19:20.032Z,44.80
2023-03-29T11:22:37.899Z,45.10
2023-03-29T11:25:33.376Z,45.40
2023-03-29T11:28:15.419Z,45.50
2023-03-29T11:31:02.496Z,45.30
2023-03-29T11:33:56.181Z,45.00
2023-03-29T11:36:51.114Z,45.60
2023-03-29T11:39:55.432Z,46.40
2023-03-29T11:42:35.649Z,47.30
2023-03-29T11:45:08.136Z,47.80
2023-03-29T11:47:41.674Z,47.30
2023-03-29T11:50:17.969Z,46.40
2023-03-29T11:52:53.552Z,46.50
2023-03-29T11:55:29.572Z,47.00
2023-03-29T11:58:06.390Z,46.80
2023-03-29T12:00:48.429Z,46.20
2023-03-29T12:03:57.650Z,45.70
2023-03-29T12:07:09.296Z,46.50
2023-03-29T12:09:55.446Z,46.40
2023-03-29T12:12:58.089Z,45.40
2023-03-29T12:15:29.620Z,45.70
2023-03-29T12:18:03.248Z,46.50
2023-03-29T12:20:36.630Z,47.30
2023-03-29T12:23:15.207Z,47.60
2023-03-29T12:26:05.398Z,47.00
2023-03-29T12:28:55.949Z,46.80
2023-03-29T12:31:34.589Z,46.30
2023-03-29T12:34:15.020Z,44.90
2023-03-29T12:37:12.784Z,44.70
2023-03-29T12:39:41.518Z,45.60
2023-03-29T12:42:24.405Z,46.30
2023-03-29T12:45:00.920Z,48.10
2023-03-29T12:47:43.798Z,47.50
2023-03-29T12:50:37.874Z,49.00
2023-03-29T12:53:39.878Z,49.70
2023-03-29T12:57:07.777Z,49.30
2023-03-29T12:59:43.073Z,50.10
2023-03-29T13:02:22.812Z,50.40
2023-03-29T13:05:21.534Z,49.70
2023-03-29T13:07:59.869Z,51.30
2023-03-29T13:10:40.848Z,52.70
2023-03-29T13:13:21.400Z,52.60
2023-03-29T13:16:01.525Z,52.10
2023-03-29T13:19:06.937Z,51.70
2023-03-29T13:22:25.396Z,52.10
2023-03-29T13:25:21.188Z,53.20
2023-03-29T13:28:35.349Z,52.50
2023-03-29T13:31:36.430Z,53.10
2023-03-29T13:34:33.304Z,53.70
2023-03-29T13:37:32.792Z,52.60
2023-03-29T13:40:20.916Z,52.50
2023-03-29T13:43:19.782Z,52.50
2023-03-29T13:46:02.758Z,52.40
2023-03-29T13:48:38.332Z,52.00
2023-03-29T13:51:33.247Z,50.50
2023-03-29T13:54:27.266Z,50.40
2023-03-29T13:57:13.694Z,51.30
2023-03-29T14:00:00.450Z,50.90
2023-03-29T14:02:33.920Z,51.10
2023-03-29T14:05:05.959Z,50.90
2023-03-29T14:07:33.616Z,50.30
2023-03-29T14:10:01.757Z,49.40
2023-03-29T14:12:37.831Z,50.10
2023-03-29T14:15:11.727Z,51.10
2023-03-29T14:17:39.766Z,51.30
2023-03-29T14:20:09.921Z,51.40
2023-03-29T14:22:38.193Z,51.60
2023-03-29T14:25:18.067Z,51.20
2023-03-29T14:27:46.325Z,50.20
2023-03-29T14:30:22.157Z,49.90
2023-03-29T14:32:52.163Z,49.70
2023-03-29T14:35:28.293Z,49.30
2023-03-29T14:37:58.641Z,49.30
2023-03-29T14:40:31.275Z,49.50
2023-03-29T14:43:05.668Z,49.30
2023-03-29T14:45:33.849Z,49.20
2023-03-29T14:48:05.859Z,49.60
2023-03-29T14:50:39.438Z,49.80
2023-03-29T14:53:10.136Z,49.70
2023-03-29T14:55:42.446Z,50.40
2023-03-29T14:58:21.955Z,50.70
2023-03-29T15:00:55.376Z,50.70
2023-03-29T15:03:27.683Z,50.60
2023-03-29T15:06:07.499Z,51.30
2023-03-29T15:08:40.531Z,51.70
2023-03-29T15:11:22.166Z,52.30
2023-03-29T15:13:54.508Z,52.30
2023-03-29T15:16:25.724Z,52.70
2023-03-29T15:19:00.500Z,53.20
2023-03-29T15:21:36.201Z,53.10
2023-03-29T15:24:22.181Z,53.10
2023-03-29T15:27:03.025Z,53.60
2023-03-29T15:29:42.179Z,53.60
2023-03-29T15:32:20.367Z,53.70
2023-03-29T15:34:59.921Z,53.90
2023-03-29T15:37:28.734Z,54.40
2023-03-29T15:39:56.969Z,54.80
2023-03-29T15:42:25.452Z,54.90
2023-03-29T15:44:56.582Z,55.50
2023-03-29T15:47:28.298Z,55.80
2023-03-29T15:49:55.398Z,56.30
2023-03-29T15:52:22.655Z,56.50
2023-03-29T15:54:53.013Z,56.40
2023-03-29T15:57:20.747Z,56.30
2023-03-29T15:59:48.462Z,56.90
2023-03-29T16:02:18.246Z,57.50
2023-03-29T16:04:46.052Z,58.20
2023-03-29T16:07:18.178Z,58.40
2023-03-29T16:09:49.129Z,58.70
2023-03-29T16:12:17.328Z,58.60
2023-03-29T16:14:44.672Z,58.60
2023-03-29T16:17:12.452Z,59.00
2023-03-29T16:19:39.541Z,59.90
2023-03-29T16:22:07.589Z,59.90
2023-03-29T16:24:36.571Z,60.60
2023-03-29T16:27:04.570Z,60.40
2023-03-29T16:29:36.817Z,61.20
2023-03-29T16:32:06.241Z,61.50
2023-03-29T16:34:36.177Z,61.80
2023-03-29T16:37:04.129Z,62.00
2023-03-29T16:39:32.335Z,61.90
2023-03-29T16:42:03.150Z,62.40
2023-03-29T16:44:30.591Z,62.80
2023-03-29T16:47:00.810Z,63.10
2023-03-29T16:49:28.536Z,63.30
2023-03-29T16:51:56.431Z,63.20
2023-03-29T16:54:25.799Z,63.40
2023-03-29T16:56:53.916Z,63.50
2023-03-29T16:59:23.114Z,63.70
2023-03-29T17:01:50.842Z,63.80
2023-03-29T17:04:18.074Z,63.70
2023-03-29T17:06:46.124Z,63.60
2023-03-29T17:09:15.868Z,63.60
2023-03-29T17:11:44.468Z,63.40
2023-03-29T17:14:12.023Z,63.50
2023-03-29T17:16:42.196Z,64.10
2023-03-29T17:19:10.023Z,64.40
2023-03-29T17:21:38.161Z,64.60
2023-03-29T17:24:06.163Z,64.80
2023-03-29T17:26:36.239Z,65.00
2023-03-29T17:29:04.196Z,65.20
2023-03-29T17:31:32.827Z,65.20
2023-03-29T17:34:01.131Z,65.30
2023-03-29T17:36:29.342Z,65.00
2023-03-29T17:38:56.869Z,65.30
2023-03-29T17:41:24.191Z,65.20
2023-03-29T17:43:52.790Z,65.50
2023-03-29T17:46:23.299Z,65.60
2023-03-29T17:48:53.490Z,65.70
2023-03-29T17:51:21.465Z,65.70
2023-03-29T17:53:48.852Z,65.60
2023-03-29T17:56:16.518Z,65.60
2023-03-29T17:58:46.686Z,65.70
2023-03-29T18:01:14.777Z,65.60
2023-03-29T18:03:42.898Z,66.10
2023-03-29T18:06:10.099Z,66.10
2023-03-29T18:08:38.363Z,66.20
2023-03-29T18:11:17.334Z,66.10
2023-03-29T18:13:45.173Z,66.40
2023-03-29T18:16:15.484Z,66.70
2023-03-29T18:18:43.705Z,66.70
2023-03-29T18:21:11.419Z,66.50
2023-03-29T18:23:42.504Z,66.60
2023-03-29T18:26:09.769Z,66.60
2023-03-29T18:28:37.695Z,66.50
2023-03-29T18:31:08.774Z,66.60
2023-03-29T18:33:38.901Z,66.90
2023-03-29T18:36:10.878Z,66.80
2023-03-29T18:38:43.405Z,66.90
2023-03-29T18:41:12.718Z,66.60
2023-03-29T18:43:40.564Z,66.70
2023-03-29T18:46:09.155Z,66.90
2023-03-29T18:48:39.348Z,67.10
2023-03-29T18:51:08.243Z,67.00
2023-03-29T18:53:40.862Z,67.20
2023-03-29T18:56:08.240Z,67.40
2023-03-29T18:58:36.726Z,67.60
2023-03-29T19:01:06.059Z,67.50
2023-03-29T19:03:35.087Z,67.90
2023-03-29T19:06:09.327Z,68.10
2023-03-29T19:08:39.971Z,68.10
2023-03-29T19:11:09.416Z,67.90
2023-03-29T19:13:37.135Z,68.30
2023-03-29T19:16:04.969Z,68.50
2023-03-29T19:18:33.403Z,69.00
2023-03-29T19:21:00.631Z,68.80
2023-03-29T19:23:28.635Z,68.90
2023-03-29T19:26:05.917Z,69.10
2023-03-29T19:28:34.705Z,69.20
2023-03-29T19:31:03.663Z,69.70
2023-03-29T19:33:30.940Z,69.80
2023-03-29T19:35:58.204Z,70.00
2023-03-29T19:38:25.708Z,70.10
2023-03-29T19:40:53.291Z,70.20
2023-03-29T19:43:21.121Z,70.40
2023-03-29T19:45:51.503Z,70.40
2023-03-29T19:48:23.029Z,70.40
2023-03-29T19:50:51.641Z,70.70
2023-03-29T19:53:19.401Z,70.50
2023-03-29T19:55:46.848Z,70.80
2023-03-29T19:58:13.939Z,70.80
2023-03-29T20:00:41.988Z,70.80
2023-03-29T20:03:10.710Z,70.60
2023-03-29T20:05:39.289Z,70.50
2023-03-29T20:08:07.779Z,71.00
2023-03-29T20:10:36.014Z,71.00
2023-03-29T20:13:05.973Z,71.20
2023-03-29T20:15:33.687Z,71.10
2023-03-29T20:18:01.731Z,71.20
2023-03-29T20:20:30.312Z,71.40
2023-03-29T20:23:05.040Z,71.50
2023-03-29T20:25:35.012Z,71.70
2023-03-29T20:28:03.000Z,71.70
2023-03-29T20:30:30.356Z,71.60
2023-03-29T20:32:57.864Z,71.90
2023-03-29T20:35:25.021Z,71.80
2023-03-29T20:37:52.266Z,71.90
2023-03-29T20:40:21.165Z,72.00
2023-03-29T20:42:49.404Z,72.00
2023-03-29T20:45:19.639Z,72.10
2023-03-29T20:47:56.205Z,72.20
2023-03-29T20:50:26.791Z,72.30
2023-03-29T20:52:54.730Z,72.40
2023-03-29T20:55:25.815Z,72.50
2023-03-29T20:58:00.079Z,72.70
2023-03-29T21:00:29.450Z,72.50
2023-03-29T21:03:00.898Z,72.40
2023-03-29T21:05:30.034Z,72.50
2023-03-29T21:07:57.329Z,72.30
2023-03-29T21:10:25.728Z,72.10
2023-03-29T21:13:00.769Z,72.00
2023-03-29T21:15:30.822Z,71.80
2023-03-29T21:17:58.704Z,71.50
2023-03-29T21:20:27.768Z,71.20
2023-03-29T21:22:54.961Z,71.40
2023-03-29T21:25:24.951Z,71.00
2023-03-29T21:27:52.350Z,71.10
2023-03-29T21:30:19.690Z,70.90
2023-03-29T21:32:50.006Z,71.20
2023-03-29T21:35:17.688Z,71.20
2023-03-29T21:37:45.040Z,71.20
2023-03-29T21:40:13.063Z,71.30
2023-03-29T21:42:40.573Z,71.10
2023-03-29T21:45:09.334Z,71.00
2023-03-29T21:47:38.835Z,71.10
2023-03-29T21:50:06.775Z,71.00
2023-03-29T21:52:33.881Z,71.10
2023-03-29T21:55:01.072Z,71.00
2023-03-29T21:57:28.533Z,71.20
2023-03-29T21:59:58.889Z,71.20
2023-03-29T22:02:26.355Z,71.10
2023-03-29T22:04:53.630Z,71.10
2023-03-29T22:07:22.920Z,71.20
2023-03-29T22:09:50.374Z,71.30
2023-03-29T22:12:18.726Z,71.30
2023-03-29T22:14:46.213Z,71.50
2023-03-29T22:17:13.732Z,71.80
2023-03-29T22:19:41.769Z,71.70
2023-03-29T22:22:14.195Z,71.80
2023-03-29T22:24:43.193Z,71.80
2023-03-29T22:27:11.772Z,71.80
2023-03-29T22:29:39.181Z,71.60
2023-03-29T22:32:07.257Z,71.60
2023-03-29T22:34:35.133Z,71.50
2023-03-29T22:37:06.347Z,71.60
2023-03-29T22:39:39.910Z,71.40
2023-03-29T22:42:07.408Z,71.30
2023-03-29T22:44:34.770Z,71.10
2023-03-29T22:47:02.384Z,71.00
2023-03-29T22:49:29.577Z,70.80
2023-03-29T22:51:57.057Z,70.60
2023-03-29T22:54:24.463Z,70.60
2023-03-29T22:56:51.951Z,70.70
2023-03-29T22:59:19.369Z,70.70
2023-03-29T23:01:48.303Z,70.50
2023-03-29T23:04:19.319Z,70.20
2023-03-29T23:06:49.312Z,70.20
2023-03-29T23:09:17.067Z,69.60
2023-03-29T23:11:44.311Z,69.40
2023-03-29T23:14:11.443Z,68.80
2023-03-29T23:16:38.633Z,68.90
2023-03-29T23:19:09.296Z,68.70
2023-03-29T23:21:37.512Z,68.70
2023-03-29T23:24:05.540Z,68.60
2023-03-29T23:26:33.997Z,68.90
2023-03-29T23:29:02.745Z,68.90
2023-03-29T23:31:30.177Z,68.70
2023-03-29T23:33:59.181Z,68.10
2023-03-29T23:36:31.124Z,68.30
2023-03-29T23:39:00.044Z,68.90
2023-03-29T23:41:28.402Z,69.50
2023-03-29T23:43:57.808Z,69.60
2023-03-29T23:46:26.453Z,69.90
2023-03-29T23:48:53.706Z,70.40
2023-03-29T23:51:28.533Z,70.90
2023-03-29T23:53:56.614Z,71.90
2023-03-29T23:56:27.872Z,72.90
2023-03-29T23:58:55.312Z,73.60
